Aérodrome :
LOGIN :

S'inscrire | Disclaimer

   EN    FR    IT 

 










Légende :    VFR   VFR Marginal   IFR   IFR Intensif   IFR Très Intensif
Visi : 
Plafond : 
>= 8 km
>= 3000ft
5 à 8 km
1000 à 3000 ft
1500m à 5 km
500 à 1000 ft
800 à 1500m
200 à 500 ft
< 800m
< 200 ft
Symboles :   Orages  Brouillard  Fortes neiges  Fortes précipitations  Vent > 20 kt
SIGMETs :   Divers  Orages  Givrage  Turbulence  Onde Orograph.  Cendres Volcan.






- Altitude de l'aérodrome : 238 ft
- Code IATA : FAB


EGLF - Farnborough

DERNIER METAR :
  • 130950Z 28005KT 230V330 9999 FEW023 SCT033 16/10 Q1014

METARs EXPIRÉS :
  • 130920Z AUTO 29005KT 190V340 9999 FEW023/// 16/10 Q1014
  • 130850Z AUTO 28007KT 250V310 9999 FEW021/// BKN027/// 15/10 Q1014
  • 130820Z AUTO 28005KT 240V330 9999 NCD 15/10 Q1014
  • 130750Z AUTO 28005KT 250V320 9999 NCD 14/10 Q1015
  • 130720Z AUTO 30004KT 260V340 9999 NCD 13/10 Q1015
  • 130650Z 23004KT 9999 SCT034 13/10 Q1015
  • 130620Z AUTO 25004KT 9999 BKN031/// 12/10 Q1015
  • 130550Z AUTO 24003KT 9999 SCT031/// 11/10 Q1015
  • 130520Z AUTO 22003KT 9999 NCD 11/10 Q1015

TAF TAF EGLF
Valide du 13 à 09h jusqu'au 13 à 18h UTC


130802Z 1309/1318 28005KT 9999 FEW030
PROB30
TEMPO 1312/1318 7000 SHRA
ATIS : +44 09063 800 400 (*282)



MET'MAP, la Météo Aéronautique d'un coup d'oeil ! - Copyright ORBIFLY Décembre 2007 - Disclaimer

ORBIFLY MET'MAP TEAM :

Programmation & Développement : Alexandra Zaïnal
Sur une idée originale de : Baudouin d'Aumeries
Soutien technique & logistique : Manuel Goepfert
Assistance : Marc-Olivier Méhu




SOURCES & CREDITS :

   NOAA